sensor_id;sensor_type;location;lat;lon;timestamp;temperature;humidity
54938;DHT22;52756;52.826;6.214;2022-11-20T00:01:27;1.00;68.40
54938;DHT22;52756;52.826;6.214;2022-11-20T00:03:54;1.00;68.40
54938;DHT22;52756;52.826;6.214;2022-11-20T00:06:21;1.00;68.40
54938;DHT22;52756;52.826;6.214;2022-11-20T00:08:47;1.00;68.40
54938;DHT22;52756;52.826;6.214;2022-11-20T00:11:20;1.20;68.10
54938;DHT22;52756;52.826;6.214;2022-11-20T00:13:48;1.00;67.90
54938;DHT22;52756;52.826;6.214;2022-11-20T00:16:17;1.00;67.50
54938;DHT22;52756;52.826;6.214;2022-11-20T00:18:43;0.90;67.40
54938;DHT22;52756;52.826;6.214;2022-11-20T00:21:15;0.90;67.60
54938;DHT22;52756;52.826;6.214;2022-11-20T00:23:41;0.90;67.90
54938;DHT22;52756;52.826;6.214;2022-11-20T00:26:09;0.80;68.00
54938;DHT22;52756;52.826;6.214;2022-11-20T00:28:36;0.80;67.60
54938;DHT22;52756;52.826;6.214;2022-11-20T00:31:28;0.70;67.30
54938;DHT22;52756;52.826;6.214;2022-11-20T00:33:54;0.60;67.70
54938;DHT22;52756;52.826;6.214;2022-11-20T00:36:25;0.50;68.10
54938;DHT22;52756;52.826;6.214;2022-11-20T00:38:55;0.50;68.60
54938;DHT22;52756;52.826;6.214;2022-11-20T00:41:22;0.40;69.00
54938;DHT22;52756;52.826;6.214;2022-11-20T00:43:48;0.40;69.40
54938;DHT22;52756;52.826;6.214;2022-11-20T00:46:16;0.40;69.50
54938;DHT22;52756;52.826;6.214;2022-11-20T00:48:43;0.50;69.80
54938;DHT22;52756;52.826;6.214;2022-11-20T00:51:11;0.50;69.90
54938;DHT22;52756;52.826;6.214;2022-11-20T00:53:37;0.50;70.20
54938;DHT22;52756;52.826;6.214;2022-11-20T00:56:06;0.50;70.40
54938;DHT22;52756;52.826;6.214;2022-11-20T00:58:34;0.60;70.60
54938;DHT22;52756;52.826;6.214;2022-11-20T01:01:08;0.60;70.70
54938;DHT22;52756;52.826;6.214;2022-11-20T01:03:36;0.60;70.90
54938;DHT22;52756;52.826;6.214;2022-11-20T01:06:08;0.70;71.40
54938;DHT22;52756;52.826;6.214;2022-11-20T01:08:36;0.70;71.10
54938;DHT22;52756;52.826;6.214;2022-11-20T01:11:10;0.80;71.10
54938;DHT22;52756;52.826;6.214;2022-11-20T01:13:37;0.80;71.20
54938;DHT22;52756;52.826;6.214;2022-11-20T01:18:38;0.90;71.20
54938;DHT22;52756;52.826;6.214;2022-11-20T01:21:19;0.90;71.20
54938;DHT22;52756;52.826;6.214;2022-11-20T01:23:47;0.90;71.20
54938;DHT22;52756;52.826;6.214;2022-11-20T01:26:24;1.00;71.20
54938;DHT22;52756;52.826;6.214;2022-11-20T01:28:50;1.00;71.20
54938;DHT22;52756;52.826;6.214;2022-11-20T01:31:25;1.00;71.20
54938;DHT22;52756;52.826;6.214;2022-11-20T01:33:54;1.10;71.30
54938;DHT22;52756;52.826;6.214;2022-11-20T01:36:21;1.10;71.20
54938;DHT22;52756;52.826;6.214;2022-11-20T01:38:48;1.20;71.20
54938;DHT22;52756;52.826;6.214;2022-11-20T01:41:16;1.20;71.10
54938;DHT22;52756;52.826;6.214;2022-11-20T01:44:01;1.20;71.10
54938;DHT22;52756;52.826;6.214;2022-11-20T01:46:27;1.30;71.10
54938;DHT22;52756;52.826;6.214;2022-11-20T01:48:58;1.40;71.20
54938;DHT22;52756;52.826;6.214;2022-11-20T01:51:29;1.30;71.10
54938;DHT22;52756;52.826;6.214;2022-11-20T01:53:58;1.40;71.00
54938;DHT22;52756;52.826;6.214;2022-11-20T01:56:27;1.40;71.00
54938;DHT22;52756;52.826;6.214;2022-11-20T01:58:57;1.40;70.90
54938;DHT22;52756;52.826;6.214;2022-11-20T02:01:23;1.50;70.90
54938;DHT22;52756;52.826;6.214;2022-11-20T02:03:50;1.50;70.70
54938;DHT22;52756;52.826;6.214;2022-11-20T02:08:47;1.50;70.30
54938;DHT22;52756;52.826;6.214;2022-11-20T02:11:13;1.40;70.10
54938;DHT22;52756;52.826;6.214;2022-11-20T02:13:40;1.50;70.30
54938;DHT22;52756;52.826;6.214;2022-11-20T02:16:15;1.40;70.40
54938;DHT22;52756;52.826;6.214;2022-11-20T02:18:42;1.40;70.60
54938;DHT22;52756;52.826;6.214;2022-11-20T02:21:32;1.40;70.70
54938;DHT22;52756;52.826;6.214;2022-11-20T02:24:14;1.50;70.90
54938;DHT22;52756;52.826;6.214;2022-11-20T02:27:00;1.50;70.90
54938;DHT22;52756;52.826;6.214;2022-11-20T02:29:39;1.50;70.80
54938;DHT22;52756;52.826;6.214;2022-11-20T02:32:16;1.50;70.50
54938;DHT22;52756;52.826;6.214;2022-11-20T02:34:42;1.50;70.50
54938;DHT22;52756;52.826;6.214;2022-11-20T02:37:08;1.50;70.60
54938;DHT22;52756;52.826;6.214;2022-11-20T02:39:33;1.50;70.60
54938;DHT22;52756;52.826;6.214;2022-11-20T02:42:00;1.60;70.70
54938;DHT22;52756;52.826;6.214;2022-11-20T02:44:26;1.60;70.80
54938;DHT22;52756;52.826;6.214;2022-11-20T02:46:52;1.60;70.80
54938;DHT22;52756;52.826;6.214;2022-11-20T02:49:17;1.60;70.40
54938;DHT22;52756;52.826;6.214;2022-11-20T02:51:43;1.60;70.20
54938;DHT22;52756;52.826;6.214;2022-11-20T02:54:09;1.60;70.70
54938;DHT22;52756;52.826;6.214;2022-11-20T02:56:37;1.70;70.90
54938;DHT22;52756;52.826;6.214;2022-11-20T02:59:02;1.60;70.50
54938;DHT22;52756;52.826;6.214;2022-11-20T03:01:28;1.60;70.60
54938;DHT22;52756;52.826;6.214;2022-11-20T03:03:54;1.60;70.60
54938;DHT22;52756;52.826;6.214;2022-11-20T03:06:20;1.60;70.70
54938;DHT22;52756;52.826;6.214;2022-11-20T03:08:45;1.60;70.60
54938;DHT22;52756;52.826;6.214;2022-11-20T03:11:11;1.70;70.50
54938;DHT22;52756;52.826;6.214;2022-11-20T03:13:37;1.70;70.50
54938;DHT22;52756;52.826;6.214;2022-11-20T03:16:14;1.70;70.90
54938;DHT22;52756;52.826;6.214;2022-11-20T03:18:41;1.70;70.90
54938;DHT22;52756;52.826;6.214;2022-11-20T03:21:08;1.70;70.50
54938;DHT22;52756;52.826;6.214;2022-11-20T03:23:34;1.70;70.50
54938;DHT22;52756;52.826;6.214;2022-11-20T03:26:23;1.70;70.80
54938;DHT22;52756;52.826;6.214;2022-11-20T03:28:54;1.80;70.40
54938;DHT22;52756;52.826;6.214;2022-11-20T03:31:23;1.80;70.40
54938;DHT22;52756;52.826;6.214;2022-11-20T03:33:49;1.80;70.40
54938;DHT22;52756;52.826;6.214;2022-11-20T03:36:16;1.80;70.40
54938;DHT22;52756;52.826;6.214;2022-11-20T03:38:43;1.80;70.40
54938;DHT22;52756;52.826;6.214;2022-11-20T03:41:14;1.90;70.30
54938;DHT22;52756;52.826;6.214;2022-11-20T03:43:40;1.80;70.00
54938;DHT22;52756;52.826;6.214;2022-11-20T03:46:06;1.80;69.90
54938;DHT22;52756;52.826;6.214;2022-11-20T03:48:32;1.80;69.90
54938;DHT22;52756;52.826;6.214;2022-11-20T03:51:09;1.80;69.90
54938;DHT22;52756;52.826;6.214;2022-11-20T03:53:35;1.80;69.90
54938;DHT22;52756;52.826;6.214;2022-11-20T03:56:01;1.80;69.90
54938;DHT22;52756;52.826;6.214;2022-11-20T03:58:26;1.80;70.00
54938;DHT22;52756;52.826;6.214;2022-11-20T04:00:52;1.80;69.40
54938;DHT22;52756;52.826;6.214;2022-11-20T04:03:18;1.80;69.60
54938;DHT22;52756;52.826;6.214;2022-11-20T04:05:43;1.80;69.80
54938;DHT22;52756;52.826;6.214;2022-11-20T04:08:09;1.80;70.00
54938;DHT22;52756;52.826;6.214;2022-11-20T04:10:35;1.80;70.10
54938;DHT22;52756;52.826;6.214;2022-11-20T04:13:00;1.80;70.20
54938;DHT22;52756;52.826;6.214;2022-11-20T04:15:26;1.80;70.30
54938;DHT22;52756;52.826;6.214;2022-11-20T04:17:52;1.80;70.30
54938;DHT22;52756;52.826;6.214;2022-11-20T04:20:19;1.80;70.30
54938;DHT22;52756;52.826;6.214;2022-11-20T04:22:45;1.80;70.30
54938;DHT22;52756;52.826;6.214;2022-11-20T04:25:10;1.80;70.30
54938;DHT22;52756;52.826;6.214;2022-11-20T04:27:36;1.80;70.30
54938;DHT22;52756;52.826;6.214;2022-11-20T04:30:02;1.90;70.30
54938;DHT22;52756;52.826;6.214;2022-11-20T04:32:28;1.90;70.30
54938;DHT22;52756;52.826;6.214;2022-11-20T04:34:53;1.90;70.30
54938;DHT22;52756;52.826;6.214;2022-11-20T04:37:19;1.90;70.20
54938;DHT22;52756;52.826;6.214;2022-11-20T04:39:44;1.90;70.20
54938;DHT22;52756;52.826;6.214;2022-11-20T04:42:10;1.90;70.10
54938;DHT22;52756;52.826;6.214;2022-11-20T04:44:55;1.90;70.10
54938;DHT22;52756;52.826;6.214;2022-11-20T04:47:21;1.90;70.00
54938;DHT22;52756;52.826;6.214;2022-11-20T04:49:47;1.90;70.00
54938;DHT22;52756;52.826;6.214;2022-11-20T04:52:13;1.90;69.80
54938;DHT22;52756;52.826;6.214;2022-11-20T04:54:38;1.90;69.30
54938;DHT22;52756;52.826;6.214;2022-11-20T04:57:04;1.90;69.00
54938;DHT22;52756;52.826;6.214;2022-11-20T04:59:30;1.80;68.90
54938;DHT22;52756;52.826;6.214;2022-11-20T05:01:55;1.90;69.20
54938;DHT22;52756;52.826;6.214;2022-11-20T05:04:21;1.80;69.40
54938;DHT22;52756;52.826;6.214;2022-11-20T05:06:47;1.80;69.50
54938;DHT22;52756;52.826;6.214;2022-11-20T05:09:13;1.70;69.20
54938;DHT22;52756;52.826;6.214;2022-11-20T05:11:38;1.70;69.10
54938;DHT22;52756;52.826;6.214;2022-11-20T05:14:04;1.70;69.30
54938;DHT22;52756;52.826;6.214;2022-11-20T05:16:30;1.70;69.50
54938;DHT22;52756;52.826;6.214;2022-11-20T05:18:56;1.70;69.70
54938;DHT22;52756;52.826;6.214;2022-11-20T05:21:22;1.70;69.80
54938;DHT22;52756;52.826;6.214;2022-11-20T05:23:48;1.70;69.80
54938;DHT22;52756;52.826;6.214;2022-11-20T05:26:19;1.70;69.50
54938;DHT22;52756;52.826;6.214;2022-11-20T05:28:47;1.70;69.60
54938;DHT22;52756;52.826;6.214;2022-11-20T05:31:15;1.70;69.80
54938;DHT22;52756;52.826;6.214;2022-11-20T05:33:43;1.70;70.40
54938;DHT22;52756;52.826;6.214;2022-11-20T05:36:10;1.70;70.10
54938;DHT22;52756;52.826;6.214;2022-11-20T05:38:36;1.60;69.90
54938;DHT22;52756;52.826;6.214;2022-11-20T05:41:06;1.70;69.30
54938;DHT22;52756;52.826;6.214;2022-11-20T05:43:33;1.60;68.70
54938;DHT22;52756;52.826;6.214;2022-11-20T05:46:00;1.40;68.30
54938;DHT22;52756;52.826;6.214;2022-11-20T05:48:25;1.40;68.70
54938;DHT22;52756;52.826;6.214;2022-11-20T05:50:51;1.40;69.30
54938;DHT22;52756;52.826;6.214;2022-11-20T05:53:16;1.30;69.60
54938;DHT22;52756;52.826;6.214;2022-11-20T05:55:42;1.40;70.00
54938;DHT22;52756;52.826;6.214;2022-11-20T05:58:08;1.40;70.20
54938;DHT22;52756;52.826;6.214;2022-11-20T06:00:33;1.30;70.20
54938;DHT22;52756;52.826;6.214;2022-11-20T06:02:59;1.30;70.10
54938;DHT22;52756;52.826;6.214;2022-11-20T06:05:25;1.40;70.00
54938;DHT22;52756;52.826;6.214;2022-11-20T06:07:50;1.40;69.90
54938;DHT22;52756;52.826;6.214;2022-11-20T06:10:16;1.30;69.90
54938;DHT22;52756;52.826;6.214;2022-11-20T06:12:41;1.40;70.00
54938;DHT22;52756;52.826;6.214;2022-11-20T06:15:08;1.30;70.30
54938;DHT22;52756;52.826;6.214;2022-11-20T06:17:33;1.40;69.90
54938;DHT22;52756;52.826;6.214;2022-11-20T06:19:59;1.40;70.10
54938;DHT22;52756;52.826;6.214;2022-11-20T06:22:25;1.40;70.20
54938;DHT22;52756;52.826;6.214;2022-11-20T06:24:50;1.40;70.30
54938;DHT22;52756;52.826;6.214;2022-11-20T06:27:16;1.40;70.20
54938;DHT22;52756;52.826;6.214;2022-11-20T06:29:43;1.40;70.30
54938;DHT22;52756;52.826;6.214;2022-11-20T06:32:09;1.40;70.40
54938;DHT22;52756;52.826;6.214;2022-11-20T06:34:34;1.50;70.60
54938;DHT22;52756;52.826;6.214;2022-11-20T06:37:00;1.50;70.50
54938;DHT22;52756;52.826;6.214;2022-11-20T06:39:26;1.40;70.00
54938;DHT22;52756;52.826;6.214;2022-11-20T06:41:51;1.40;69.60
54938;DHT22;52756;52.826;6.214;2022-11-20T06:44:17;1.40;69.60
54938;DHT22;52756;52.826;6.214;2022-11-20T06:46:42;1.30;69.70
54938;DHT22;52756;52.826;6.214;2022-11-20T06:49:08;1.40;69.60
54938;DHT22;52756;52.826;6.214;2022-11-20T06:51:34;1.20;69.60
54938;DHT22;52756;52.826;6.214;2022-11-20T06:53:59;1.20;69.70
54938;DHT22;52756;52.826;6.214;2022-11-20T06:56:26;1.10;69.70
54938;DHT22;52756;52.826;6.214;2022-11-20T06:58:52;1.10;69.90
54938;DHT22;52756;52.826;6.214;2022-11-20T07:01:18;1.10;70.10
54938;DHT22;52756;52.826;6.214;2022-11-20T07:03:43;1.00;69.80
54938;DHT22;52756;52.826;6.214;2022-11-20T07:06:09;1.00;69.90
54938;DHT22;52756;52.826;6.214;2022-11-20T07:08:35;1.00;70.70
54938;DHT22;52756;52.826;6.214;2022-11-20T07:11:03;1.00;70.70
54938;DHT22;52756;52.826;6.214;2022-11-20T07:13:29;1.00;71.00
54938;DHT22;52756;52.826;6.214;2022-11-20T07:15:55;1.00;71.20
54938;DHT22;52756;52.826;6.214;2022-11-20T07:18:24;1.00;71.40
54938;DHT22;52756;52.826;6.214;2022-11-20T07:20:49;1.00;71.20
54938;DHT22;52756;52.826;6.214;2022-11-20T07:23:15;1.10;71.70
54938;DHT22;52756;52.826;6.214;2022-11-20T07:25:41;1.10;71.40
54938;DHT22;52756;52.826;6.214;2022-11-20T07:28:06;1.10;71.50
54938;DHT22;52756;52.826;6.214;2022-11-20T07:30:32;1.10;71.60
54938;DHT22;52756;52.826;6.214;2022-11-20T07:32:58;1.20;71.80
54938;DHT22;52756;52.826;6.214;2022-11-20T07:35:24;1.20;71.90
54938;DHT22;52756;52.826;6.214;2022-11-20T07:37:50;1.30;72.00
54938;DHT22;52756;52.826;6.214;2022-11-20T07:40:16;1.30;72.00
54938;DHT22;52756;52.826;6.214;2022-11-20T07:42:52;1.40;72.10
54938;DHT22;52756;52.826;6.214;2022-11-20T07:45:19;1.40;72.00
54938;DHT22;52756;52.826;6.214;2022-11-20T07:47:45;1.40;71.80
54938;DHT22;52756;52.826;6.214;2022-11-20T07:50:12;1.50;71.80
54938;DHT22;52756;52.826;6.214;2022-11-20T07:52:39;1.50;71.80
54938;DHT22;52756;52.826;6.214;2022-11-20T07:55:05;1.50;71.80
54938;DHT22;52756;52.826;6.214;2022-11-20T07:57:31;1.60;71.80
54938;DHT22;52756;52.826;6.214;2022-11-20T07:59:57;1.60;71.60
54938;DHT22;52756;52.826;6.214;2022-11-20T08:02:22;1.70;71.60
54938;DHT22;52756;52.826;6.214;2022-11-20T08:04:48;1.70;71.30
54938;DHT22;52756;52.826;6.214;2022-11-20T08:07:14;1.70;71.10
54938;DHT22;52756;52.826;6.214;2022-11-20T08:09:40;1.70;71.00
54938;DHT22;52756;52.826;6.214;2022-11-20T08:12:05;1.80;71.00
54938;DHT22;52756;52.826;6.214;2022-11-20T08:14:50;1.80;70.80
54938;DHT22;52756;52.826;6.214;2022-11-20T08:17:15;1.80;70.20
54938;DHT22;52756;52.826;6.214;2022-11-20T08:19:41;1.80;70.00
54938;DHT22;52756;52.826;6.214;2022-11-20T08:22:07;1.80;69.90
54938;DHT22;52756;52.826;6.214;2022-11-20T08:24:32;1.80;69.50
54938;DHT22;52756;52.826;6.214;2022-11-20T08:26:58;1.80;69.20
54938;DHT22;52756;52.826;6.214;2022-11-20T08:29:27;1.70;68.80
54938;DHT22;52756;52.826;6.214;2022-11-20T08:31:53;1.70;68.80
54938;DHT22;52756;52.826;6.214;2022-11-20T08:34:19;1.70;68.70
54938;DHT22;52756;52.826;6.214;2022-11-20T08:36:44;1.70;69.00
54938;DHT22;52756;52.826;6.214;2022-11-20T08:39:14;1.70;69.20
54938;DHT22;52756;52.826;6.214;2022-11-20T08:41:39;1.70;69.20
54938;DHT22;52756;52.826;6.214;2022-11-20T08:44:06;1.80;69.20
54938;DHT22;52756;52.826;6.214;2022-11-20T08:46:39;1.90;68.90
54938;DHT22;52756;52.826;6.214;2022-11-20T08:49:08;1.90;68.10
54938;DHT22;52756;52.826;6.214;2022-11-20T08:51:35;2.00;68.70
54938;DHT22;52756;52.826;6.214;2022-11-20T08:54:01;2.10;68.80
54938;DHT22;52756;52.826;6.214;2022-11-20T08:56:27;2.30;68.60
54938;DHT22;52756;52.826;6.214;2022-11-20T08:58:53;2.50;68.20
54938;DHT22;52756;52.826;6.214;2022-11-20T09:01:19;2.70;67.90
54938;DHT22;52756;52.826;6.214;2022-11-20T09:03:46;2.70;67.30
54938;DHT22;52756;52.826;6.214;2022-11-20T09:06:12;2.80;65.90
54938;DHT22;52756;52.826;6.214;2022-11-20T09:08:38;2.90;65.50
54938;DHT22;52756;52.826;6.214;2022-11-20T09:11:04;2.90;65.90
54938;DHT22;52756;52.826;6.214;2022-11-20T09:13:31;3.00;65.20
54938;DHT22;52756;52.826;6.214;2022-11-20T09:15:59;3.00;65.10
54938;DHT22;52756;52.826;6.214;2022-11-20T09:18:26;3.00;64.50
54938;DHT22;52756;52.826;6.214;2022-11-20T09:20:56;3.00;63.90
54938;DHT22;52756;52.826;6.214;2022-11-20T09:23:22;3.00;63.70
54938;DHT22;52756;52.826;6.214;2022-11-20T09:25:48;3.00;64.20
54938;DHT22;52756;52.826;6.214;2022-11-20T09:28:13;3.10;64.10
54938;DHT22;52756;52.826;6.214;2022-11-20T09:30:39;3.10;63.50
54938;DHT22;52756;52.826;6.214;2022-11-20T09:33:05;3.10;63.40
54938;DHT22;52756;52.826;6.214;2022-11-20T09:35:32;3.20;63.10
54938;DHT22;52756;52.826;6.214;2022-11-20T09:37:58;3.20;63.00
54938;DHT22;52756;52.826;6.214;2022-11-20T09:40:26;3.20;62.50
54938;DHT22;52756;52.826;6.214;2022-11-20T09:43:03;3.20;62.00
54938;DHT22;52756;52.826;6.214;2022-11-20T09:45:44;3.20;61.70
54938;DHT22;52756;52.826;6.214;2022-11-20T09:48:42;3.20;61.40
54938;DHT22;52756;52.826;6.214;2022-11-20T09:53:51;3.10;62.10
54938;DHT22;52756;52.826;6.214;2022-11-20T09:56:21;3.10;61.50
54938;DHT22;52756;52.826;6.214;2022-11-20T09:58:56;3.00;61.60
54938;DHT22;52756;52.826;6.214;2022-11-20T10:01:29;2.90;61.60
54938;DHT22;52756;52.826;6.214;2022-11-20T10:06:33;2.90;61.80
54938;DHT22;52756;52.826;6.214;2022-11-20T10:09:12;2.90;62.60
54938;DHT22;52756;52.826;6.214;2022-11-20T10:20:46;2.70;61.60
54938;DHT22;52756;52.826;6.214;2022-11-20T10:25:38;2.70;61.20
54938;DHT22;52756;52.826;6.214;2022-11-20T10:28:24;2.70;60.80
54938;DHT22;52756;52.826;6.214;2022-11-20T10:31:17;2.70;60.80
54938;DHT22;52756;52.826;6.214;2022-11-20T10:33:48;2.80;60.40
54938;DHT22;52756;52.826;6.214;2022-11-20T10:36:29;2.70;59.70
54938;DHT22;52756;52.826;6.214;2022-11-20T10:39:03;2.70;60.20
54938;DHT22;52756;52.826;6.214;2022-11-20T10:41:34;2.70;59.40
54938;DHT22;52756;52.826;6.214;2022-11-20T10:44:17;2.60;59.40
54938;DHT22;52756;52.826;6.214;2022-11-20T10:47:01;2.60;59.40
54938;DHT22;52756;52.826;6.214;2022-11-20T10:49:28;2.60;59.30
54938;DHT22;52756;52.826;6.214;2022-11-20T11:00:13;2.60;58.30
54938;DHT22;52756;52.826;6.214;2022-11-20T11:02:50;2.60;58.70
54938;DHT22;52756;52.826;6.214;2022-11-20T11:05:39;2.60;58.60
54938;DHT22;52756;52.826;6.214;2022-11-20T11:08:12;2.70;58.40
54938;DHT22;52756;52.826;6.214;2022-11-20T11:10:56;2.70;58.50
54938;DHT22;52756;52.826;6.214;2022-11-20T11:13:28;2.80;58.60
54938;DHT22;52756;52.826;6.214;2022-11-20T11:15:54;2.80;58.80
54938;DHT22;52756;52.826;6.214;2022-11-20T11:18:31;3.00;58.40
54938;DHT22;52756;52.826;6.214;2022-11-20T11:21:00;2.90;58.00
54938;DHT22;52756;52.826;6.214;2022-11-20T11:23:44;2.90;57.70
54938;DHT22;52756;52.826;6.214;2022-11-20T11:26:23;3.00;57.50
54938;DHT22;52756;52.826;6.214;2022-11-20T11:28:56;3.00;57.70
54938;DHT22;52756;52.826;6.214;2022-11-20T11:31:33;3.10;57.90
54938;DHT22;52756;52.826;6.214;2022-11-20T11:34:28;3.00;57.90
54938;DHT22;52756;52.826;6.214;2022-11-20T11:36:57;3.00;57.60
54938;DHT22;52756;52.826;6.214;2022-11-20T11:39:23;3.10;57.80
54938;DHT22;52756;52.826;6.214;2022-11-20T11:41:50;3.10;57.60
54938;DHT22;52756;52.826;6.214;2022-11-20T11:44:22;3.10;57.70
54938;DHT22;52756;52.826;6.214;2022-11-20T11:49:43;3.20;57.40
54938;DHT22;52756;52.826;6.214;2022-11-20T11:52:17;3.10;57.50
54938;DHT22;52756;52.826;6.214;2022-11-20T11:55:02;3.20;57.40
54938;DHT22;52756;52.826;6.214;2022-11-20T11:58:08;3.20;57.40
54938;DHT22;52756;52.826;6.214;2022-11-20T12:00:35;3.20;57.10
54938;DHT22;52756;52.826;6.214;2022-11-20T12:03:58;3.20;56.80
54938;DHT22;52756;52.826;6.214;2022-11-20T12:06:01;3.30;56.40
54938;DHT22;52756;52.826;6.214;2022-11-20T12:08:42;3.30;56.60
54938;DHT22;52756;52.826;6.214;2022-11-20T12:11:18;3.30;56.30
54938;DHT22;52756;52.826;6.214;2022-11-20T12:13:56;3.30;56.20
54938;DHT22;52756;52.826;6.214;2022-11-20T12:16:24;3.30;56.30
54938;DHT22;52756;52.826;6.214;2022-11-20T12:18:51;3.30;56.60
54938;DHT22;52756;52.826;6.214;2022-11-20T12:23:54;3.30;56.50
54938;DHT22;52756;52.826;6.214;2022-11-20T12:32:26;3.40;56.10
54938;DHT22;52756;52.826;6.214;2022-11-20T12:37:35;3.40;56.90
54938;DHT22;52756;52.826;6.214;2022-11-20T12:46:08;3.40;56.70
54938;DHT22;52756;52.826;6.214;2022-11-20T12:51:15;3.40;57.30
54938;DHT22;52756;52.826;6.214;2022-11-20T13:07:25;3.50;57.30
54938;DHT22;52756;52.826;6.214;2022-11-20T13:09:53;3.40;57.60
54938;DHT22;52756;52.826;6.214;2022-11-20T13:12:40;3.40;57.90
54938;DHT22;52756;52.826;6.214;2022-11-20T13:15:33;3.60;57.90
54938;DHT22;52756;52.826;6.214;2022-11-20T13:18:03;3.50;57.70
54938;DHT22;52756;52.826;6.214;2022-11-20T13:20:30;3.40;57.70
54938;DHT22;52756;52.826;6.214;2022-11-20T13:22:56;3.50;57.80
54938;DHT22;52756;52.826;6.214;2022-11-20T13:25:39;3.40;58.00
54938;DHT22;52756;52.826;6.214;2022-11-20T13:30:49;3.40;58.00
54938;DHT22;52756;52.826;6.214;2022-11-20T13:33:35;3.40;58.10
54938;DHT22;52756;52.826;6.214;2022-11-20T13:36:05;3.40;58.40
54938;DHT22;52756;52.826;6.214;2022-11-20T13:38:48;3.40;58.90
54938;DHT22;52756;52.826;6.214;2022-11-20T13:41:25;3.50;59.00
54938;DHT22;52756;52.826;6.214;2022-11-20T13:44:13;3.50;59.10
54938;DHT22;52756;52.826;6.214;2022-11-20T13:46:45;3.50;59.00
54938;DHT22;52756;52.826;6.214;2022-11-20T13:49:34;3.50;59.10
54938;DHT22;52756;52.826;6.214;2022-11-20T13:55:22;3.40;59.20
54938;DHT22;52756;52.826;6.214;2022-11-20T14:00:33;3.40;59.40
54938;DHT22;52756;52.826;6.214;2022-11-20T14:03:20;3.40;59.50
54938;DHT22;52756;52.826;6.214;2022-11-20T14:05:56;3.40;59.60
54938;DHT22;52756;52.826;6.214;2022-11-20T14:08:31;3.40;59.80
54938;DHT22;52756;52.826;6.214;2022-11-20T14:13:37;3.40;60.10
54938;DHT22;52756;52.826;6.214;2022-11-20T14:16:03;3.30;60.70
54938;DHT22;52756;52.826;6.214;2022-11-20T14:18:29;3.30;60.40
54938;DHT22;52756;52.826;6.214;2022-11-20T14:20:54;3.30;60.60
54938;DHT22;52756;52.826;6.214;2022-11-20T14:23:27;3.30;61.10
54938;DHT22;52756;52.826;6.214;2022-11-20T14:25:54;3.30;60.70
54938;DHT22;52756;52.826;6.214;2022-11-20T14:28:25;3.30;60.80
54938;DHT22;52756;52.826;6.214;2022-11-20T14:30:51;3.30;61.00
54938;DHT22;52756;52.826;6.214;2022-11-20T14:33:17;3.30;61.10
54938;DHT22;52756;52.826;6.214;2022-11-20T14:35:50;3.30;61.40
54938;DHT22;52756;52.826;6.214;2022-11-20T14:38:18;3.30;61.60
54938;DHT22;52756;52.826;6.214;2022-11-20T14:40:45;3.20;61.60
54938;DHT22;52756;52.826;6.214;2022-11-20T14:43:23;3.20;61.70
54938;DHT22;52756;52.826;6.214;2022-11-20T14:46:04;3.20;61.90
54938;DHT22;52756;52.826;6.214;2022-11-20T14:48:39;3.20;62.00
54938;DHT22;52756;52.826;6.214;2022-11-20T14:51:10;3.20;62.10
54938;DHT22;52756;52.826;6.214;2022-11-20T14:53:36;3.20;62.10
54938;DHT22;52756;52.826;6.214;2022-11-20T14:56:02;3.20;62.20
54938;DHT22;52756;52.826;6.214;2022-11-20T14:58:31;3.20;62.70
54938;DHT22;52756;52.826;6.214;2022-11-20T15:01:01;3.10;62.20
54938;DHT22;52756;52.826;6.214;2022-11-20T15:03:46;3.10;62.30
54938;DHT22;52756;52.826;6.214;2022-11-20T15:06:12;3.10;62.40
54938;DHT22;52756;52.826;6.214;2022-11-20T15:08:38;3.30;62.70
54938;DHT22;52756;52.826;6.214;2022-11-20T15:11:19;3.00;62.70
54938;DHT22;52756;52.826;6.214;2022-11-20T15:13:45;3.00;62.90
54938;DHT22;52756;52.826;6.214;2022-11-20T15:16:20;3.20;63.30
54938;DHT22;52756;52.826;6.214;2022-11-20T15:18:47;3.00;63.80
54938;DHT22;52756;52.826;6.214;2022-11-20T15:21:15;3.00;63.50
54938;DHT22;52756;52.826;6.214;2022-11-20T15:23:42;3.00;63.70
54938;DHT22;52756;52.826;6.214;2022-11-20T15:26:09;3.00;64.00
54938;DHT22;52756;52.826;6.214;2022-11-20T15:28:36;3.00;64.10
54938;DHT22;52756;52.826;6.214;2022-11-20T15:31:03;3.00;64.30
54938;DHT22;52756;52.826;6.214;2022-11-20T15:33:33;3.00;64.40
54938;DHT22;52756;52.826;6.214;2022-11-20T15:35:59;3.00;64.60
54938;DHT22;52756;52.826;6.214;2022-11-20T15:38:25;3.10;64.80
54938;DHT22;52756;52.826;6.214;2022-11-20T15:40:51;3.00;65.00
54938;DHT22;52756;52.826;6.214;2022-11-20T15:43:17;3.00;65.00
54938;DHT22;52756;52.826;6.214;2022-11-20T15:45:49;3.00;65.10
54938;DHT22;52756;52.826;6.214;2022-11-20T15:48:24;3.20;65.30
54938;DHT22;52756;52.826;6.214;2022-11-20T15:53:36;3.00;65.20
54938;DHT22;52756;52.826;6.214;2022-11-20T15:56:02;3.00;65.40
54938;DHT22;52756;52.826;6.214;2022-11-20T15:58:28;3.00;65.50
54938;DHT22;52756;52.826;6.214;2022-11-20T16:00:54;3.00;65.60
54938;DHT22;52756;52.826;6.214;2022-11-20T16:03:20;3.00;65.70
54938;DHT22;52756;52.826;6.214;2022-11-20T16:05:45;3.10;65.80
54938;DHT22;52756;52.826;6.214;2022-11-20T16:08:12;3.00;65.70
54938;DHT22;52756;52.826;6.214;2022-11-20T16:10:38;3.10;66.00
54938;DHT22;52756;52.826;6.214;2022-11-20T16:13:11;3.00;65.90
54938;DHT22;52756;52.826;6.214;2022-11-20T16:15:57;3.10;66.20
54938;DHT22;52756;52.826;6.214;2022-11-20T16:18:23;3.10;66.20
54938;DHT22;52756;52.826;6.214;2022-11-20T16:20:51;3.10;66.20
54938;DHT22;52756;52.826;6.214;2022-11-20T16:23:18;3.10;66.20
54938;DHT22;52756;52.826;6.214;2022-11-20T16:25:44;3.10;66.30
54938;DHT22;52756;52.826;6.214;2022-11-20T16:28:10;3.10;66.30
54938;DHT22;52756;52.826;6.214;2022-11-20T16:30:36;3.10;66.40
54938;DHT22;52756;52.826;6.214;2022-11-20T16:33:02;3.10;66.40
54938;DHT22;52756;52.826;6.214;2022-11-20T16:35:30;3.20;66.40
54938;DHT22;52756;52.826;6.214;2022-11-20T16:37:56;3.20;66.40
54938;DHT22;52756;52.826;6.214;2022-11-20T16:40:22;3.20;66.50
54938;DHT22;52756;52.826;6.214;2022-11-20T16:42:48;3.20;66.50
54938;DHT22;52756;52.826;6.214;2022-11-20T16:45:14;3.20;66.60
54938;DHT22;52756;52.826;6.214;2022-11-20T16:47:40;3.20;66.70
54938;DHT22;52756;52.826;6.214;2022-11-20T16:50:06;3.20;66.90
54938;DHT22;52756;52.826;6.214;2022-11-20T16:52:32;3.20;67.00
54938;DHT22;52756;52.826;6.214;2022-11-20T16:54:58;3.20;67.10
54938;DHT22;52756;52.826;6.214;2022-11-20T16:57:25;3.20;67.10
54938;DHT22;52756;52.826;6.214;2022-11-20T16:59:52;3.20;67.20
54938;DHT22;52756;52.826;6.214;2022-11-20T17:02:17;3.20;67.20
54938;DHT22;52756;52.826;6.214;2022-11-20T17:04:43;3.20;67.20
54938;DHT22;52756;52.826;6.214;2022-11-20T17:07:09;3.20;67.30
54938;DHT22;52756;52.826;6.214;2022-11-20T17:09:35;3.20;67.40
54938;DHT22;52756;52.826;6.214;2022-11-20T17:12:00;3.10;67.30
54938;DHT22;52756;52.826;6.214;2022-11-20T17:14:26;3.10;67.40
54938;DHT22;52756;52.826;6.214;2022-11-20T17:16:52;3.00;67.50
54938;DHT22;52756;52.826;6.214;2022-11-20T17:19:17;3.00;67.60